Time,TemperatureF,DewpointF,PressureIn,WindDirection,WindDirectionDegrees,WindSpeedMPH,WindSpeedGustMPH,Humidity,HourlyPrecipIn,Conditions,Clouds,dailyrainin,SoftwareType,DateUTC
2013-05-10 00:22:00,53.0,52.0,30.16,North,0,0.0,2.0,96,0.00,,,0.00,,2013-05-10 07:22:00,
2013-05-10 00:32:00,53.0,52.0,30.16,North,0,0.0,1.0,97,0.00,,,0.00,,2013-05-10 07:32:00,
2013-05-10 00:42:00,53.0,52.0,30.16,North,0,0.0,2.0,97,0.00,,,0.00,,2013-05-10 07:42:00,
2013-05-10 00:52:00,53.0,52.0,30.16,North,0,0.0,2.0,97,0.00,,,0.00,,2013-05-10 07:52:00,
2013-05-10 01:02:00,52.0,51.0,30.16,NE,45,0.0,2.0,97,0.00,,,0.00,,2013-05-10 08:02:00,
2013-05-10 01:11:00,52.0,51.0,30.16,NE,45,0.0,2.0,97,0.00,,,0.00,,2013-05-10 08:11:00,
2013-05-10 01:21:00,52.0,51.0,30.16,North,0,0.0,2.0,98,0.00,,,0.00,,2013-05-10 08:21:00,
2013-05-10 01:32:00,52.0,51.0,30.16,North,0,0.0,1.0,98,0.00,,,0.00,,2013-05-10 08:32:00,
2013-05-10 01:41:00,52.0,51.0,30.16,North,0,0.0,1.0,98,0.00,,,0.00,,2013-05-10 08:41:00,
2013-05-10 01:52:00,52.0,51.0,30.16,North,0,0.0,1.0,98,0.00,,,0.00,,2013-05-10 08:52:00,
2013-05-10 02:01:00,52.0,51.0,30.16,North,0,0.0,1.0,98,0.00,,,0.00,,2013-05-10 09:01:00,
2013-05-10 02:11:00,52.0,51.0,30.16,North,0,0.0,1.0,98,0.00,,,0.00,,2013-05-10 09:11:00,
2013-05-10 02:21:00,51.0,51.0,30.15,North,0,0.0,2.0,99,0.00,,,0.00,,2013-05-10 09:21:00,
2013-05-10 02:32:00,50.0,50.0,30.15,NE,45,0.0,2.0,99,0.00,,,0.00,,2013-05-10 09:32:00,
2013-05-10 02:43:00,50.0,50.0,30.15,NE,45,0.0,2.0,99,0.00,,,0.00,,2013-05-10 09:43:00,
2013-05-10 02:52:00,50.0,50.0,30.15,NE,45,0.0,2.0,99,0.00,,,0.00,,2013-05-10 09:52:00,
2013-05-10 03:02:00,50.0,50.0,30.15,NE,45,0.0,2.0,99,0.00,,,0.00,,2013-05-10 10:02:00,
2013-05-10 03:12:00,50.0,50.0,30.15,NE,45,0.0,2.0,99,0.00,,,0.00,,2013-05-10 10:12:00,
2013-05-10 03:30:00,49.0,49.0,30.14,North,0,0.0,0.0,99,0.00,,,0.00,,2013-05-10 10:30:00,
2013-05-10 03:33:00,49.0,49.0,30.13,North,0,0.0,0.0,99,0.00,,,0.00,,2013-05-10 10:33:00,
2013-05-10 03:42:00,49.0,49.0,30.13,North,0,0.0,0.0,99,0.00,,,0.00,,2013-05-10 10:42:00,
2013-05-10 03:52:00,49.0,49.0,30.14,North,0,0.0,0.0,99,0.00,,,0.00,,2013-05-10 10:52:00,
2013-05-10 04:02:00,49.0,49.0,30.14,North,0,0.0,0.0,99,0.00,,,0.00,,2013-05-10 11:02:00,
2013-05-10 04:12:00,49.0,49.0,30.14,North,0,0.0,0.0,99,0.00,,,0.00,,2013-05-10 11:12:00,
2013-05-10 04:21:00,49.0,49.0,30.14,North,0,0.0,0.0,99,0.00,,,0.00,,2013-05-10 11:21:00,
2013-05-10 15:32:00,69.0,57.0,30.11,NNE,30,1.0,6.0,66,0.00,,,0.00,,2013-05-10 22:32:00,
2013-05-10 15:42:00,69.0,57.0,30.11,NNE,30,1.0,6.0,66,0.00,,,0.00,,2013-05-10 22:42:00,
2013-05-10 15:52:00,69.0,57.0,30.11,NNE,24,2.0,6.0,65,0.00,,,0.00,,2013-05-10 22:52:00,
2013-05-10 16:02:00,68.0,57.0,30.11,SSE,155,2.0,8.0,67,0.00,,,0.00,,2013-05-10 23:02:00,
2013-05-10 16:12:00,68.0,57.0,30.11,SSE,155,2.0,8.0,67,0.00,,,0.00,,2013-05-10 23:12:00,
2013-05-10 16:22:00,68.0,56.0,30.11,NE,44,1.0,5.0,65,0.00,,,0.00,,2013-05-10 23:22:00,
2013-05-10 16:32:00,69.0,57.0,30.10,NNE,31,1.0,5.0,66,0.00,,,0.00,,2013-05-10 23:32:00,
2013-05-10 16:41:00,69.0,57.0,30.10,NNE,31,1.0,5.0,66,0.00,,,0.00,,2013-05-10 23:41:00,
2013-05-10 16:52:00,69.0,57.0,30.10,NNE,31,1.0,5.0,66,0.00,,,0.00,,2013-05-10 23:52:00,
2013-05-10 17:01:00,69.0,57.0,30.10,NNE,31,1.0,5.0,66,0.00,,,0.00,,2013-05-11 00:01:00,
2013-05-10 17:11:00,69.0,57.0,30.10,NNE,31,1.0,5.0,66,0.00,,,0.00,,2013-05-11 00:11:00,
2013-05-10 17:22:00,67.0,56.0,30.09,NNE,23,2.0,8.0,68,0.00,,,0.00,,2013-05-11 00:22:00,
2013-05-10 17:32:00,67.0,56.0,30.09,WSW,246,2.0,5.0,69,0.00,,,0.00,,2013-05-11 00:32:00,
2013-05-10 17:42:00,67.0,56.0,30.09,WSW,246,2.0,5.0,69,0.00,,,0.00,,2013-05-11 00:42:00,
2013-05-10 17:52:00,66.0,55.0,30.09,NE,39,1.0,7.0,68,0.00,,,0.00,,2013-05-11 00:52:00,
2013-05-10 18:01:00,66.0,55.0,30.09,NE,39,1.0,7.0,68,0.00,,,0.00,,2013-05-11 01:01:00,
2013-05-10 18:11:00,66.0,55.0,30.09,NE,39,1.0,7.0,68,0.00,,,0.00,,2013-05-11 01:11:00,
2013-05-10 18:21:00,65.0,56.0,30.09,NNE,26,1.0,4.0,72,0.00,,,0.00,,2013-05-11 01:21:00,
2013-05-10 18:31:00,65.0,55.0,30.09,NE,45,0.0,2.0,71,0.00,,,0.00,,2013-05-11 01:31:00,
2013-05-10 18:42:00,65.0,55.0,30.09,NE,45,0.0,2.0,71,0.00,,,0.00,,2013-05-11 01:42:00,
2013-05-10 18:52:00,65.0,55.0,30.09,NE,45,0.0,2.0,71,0.00,,,0.00,,2013-05-11 01:52:00,
2013-05-10 19:02:00,64.0,54.0,30.09,NE,45,0.0,3.0,71,0.00,,,0.00,,2013-05-11 02:02:00,
2013-05-10 19:11:00,64.0,54.0,30.09,NE,45,0.0,3.0,71,0.00,,,0.00,,2013-05-11 02:11:00,
2013-05-10 19:21:00,64.0,55.0,30.10,NE,45,0.0,3.0,72,0.00,,,0.00,,2013-05-11 02:21:00,
2013-05-10 19:32:00,64.0,55.0,30.10,NE,45,0.0,3.0,72,0.00,,,0.00,,2013-05-11 02:32:00,
2013-05-10 19:42:00,64.0,55.0,30.10,NE,45,0.0,3.0,72,0.00,,,0.00,,2013-05-11 02:42:00,
2013-05-10 19:52:00,62.0,54.0,30.11,NE,47,0.0,4.0,74,0.00,,,0.00,,2013-05-11 02:52:00,
2013-05-10 20:01:00,62.0,54.0,30.11,NE,47,0.0,4.0,74,0.00,,,0.00,,2013-05-11 03:01:00,
2013-05-10 20:11:00,62.0,54.0,30.11,NE,47,0.0,4.0,74,0.00,,,0.00,,2013-05-11 03:11:00,
2013-05-10 20:21:00,57.0,52.0,30.11,NE,45,0.0,3.0,83,0.00,,,0.00,,2013-05-11 03:21:00,
2013-05-10 20:32:00,57.0,53.0,30.11,North,0,0.0,2.0,85,0.00,,,0.00,,2013-05-11 03:32:00,
2013-05-10 20:43:00,57.0,53.0,30.11,North,0,0.0,2.0,85,0.00,,,0.00,,2013-05-11 03:43:00,
2013-05-10 20:53:00,56.0,52.0,30.12,North,0,0.0,3.0,88,0.00,,,0.00,,2013-05-11 03:53:00,
2013-05-10 21:02:00,56.0,52.0,30.12,North,0,0.0,3.0,88,0.00,,,0.00,,2013-05-11 04:02:00,
2013-05-10 21:12:00,56.0,52.0,30.12,North,0,0.0,3.0,88,0.00,,,0.00,,2013-05-11 04:12:00,
2013-05-10 21:23:00,56.0,52.0,30.12,North,0,0.0,3.0,88,0.00,,,0.00,,2013-05-11 04:23:00,
2013-05-10 21:32:00,55.0,53.0,30.12,North,0,0.0,2.0,92,0.00,,,0.00,,2013-05-11 04:32:00,
2013-05-10 21:43:00,55.0,53.0,30.12,North,0,0.0,2.0,92,0.00,,,0.00,,2013-05-11 04:43:00,
2013-05-10 21:52:00,55.0,53.0,30.12,North,0,0.0,2.0,92,0.00,,,0.00,,2013-05-11 04:52:00,
2013-05-10 22:02:00,54.0,52.0,30.14,North,0,0.0,1.0,94,0.00,,,0.00,,2013-05-11 05:02:00,
2013-05-10 22:11:00,54.0,52.0,30.14,North,0,0.0,1.0,94,0.00,,,0.00,,2013-05-11 05:11:00,
2013-05-10 22:21:00,54.0,53.0,30.13,North,0,0.0,1.0,95,0.00,,,0.00,,2013-05-11 05:21:00,
2013-05-10 22:32:00,54.0,53.0,30.13,North,0,0.0,0.0,95,0.00,,,0.00,,2013-05-11 05:32:00,
2013-05-10 22:42:00,54.0,53.0,30.13,North,0,0.0,0.0,95,0.00,,,0.00,,2013-05-11 05:42:00,
2013-05-10 22:52:00,54.0,53.0,30.13,North,0,0.0,0.0,95,0.00,,,0.00,,2013-05-11 05:52:00,
2013-05-10 23:02:00,54.0,53.0,30.13,North,0,0.0,0.0,95,0.00,,,0.00,,2013-05-11 06:02:00,
2013-05-10 23:12:00,54.0,53.0,30.13,North,0,0.0,0.0,95,0.00,,,0.00,,2013-05-11 06:12:00,
2013-05-10 23:22:00,53.0,52.0,30.13,NE,45,0.0,2.0,97,0.00,,,0.00,,2013-05-11 06:22:00,
2013-05-10 23:32:00,52.0,51.0,30.13,North,0,0.0,2.0,97,0.00,,,0.00,,2013-05-11 06:32:00,
2013-05-10 23:42:00,52.0,51.0,30.13,North,0,0.0,0.0,98,0.00,,,0.00,,2013-05-11 06:42:00,
2013-05-10 23:52:00,52.0,51.0,30.13,North,0,0.0,0.0,98,0.00,,,0.00,,2013-05-11 06:52:00,